sensor_id;sensor_type;location;lat;lon;timestamp;temperature;humidity
21092;DHT22;10704;42.678;23.288;2024-01-25T00:01:41;3.10;99.90
21092;DHT22;10704;42.678;23.288;2024-01-25T00:04:07;3.10;99.90
21092;DHT22;10704;42.678;23.288;2024-01-25T00:06:33;3.10;99.90
21092;DHT22;10704;42.678;23.288;2024-01-25T00:08:59;2.90;99.90
21092;DHT22;10704;42.678;23.288;2024-01-25T00:11:26;2.90;99.90
21092;DHT22;10704;42.678;23.288;2024-01-25T00:13:52;2.90;99.90
21092;DHT22;10704;42.678;23.288;2024-01-25T00:16:18;3.00;99.90
21092;DHT22;10704;42.678;23.288;2024-01-25T00:18:44;2.90;99.90
21092;DHT22;10704;42.678;23.288;2024-01-25T00:21:10;3.00;99.90
21092;DHT22;10704;42.678;23.288;2024-01-25T00:23:36;3.10;99.90
21092;DHT22;10704;42.678;23.288;2024-01-25T00:26:02;3.00;99.90
21092;DHT22;10704;42.678;23.288;2024-01-25T00:28:28;3.00;99.90
21092;DHT22;10704;42.678;23.288;2024-01-25T00:30:54;3.10;99.90
21092;DHT22;10704;42.678;23.288;2024-01-25T00:33:20;3.10;99.90
21092;DHT22;10704;42.678;23.288;2024-01-25T00:35:46;3.20;99.90
21092;DHT22;10704;42.678;23.288;2024-01-25T00:38:13;3.20;99.90
21092;DHT22;10704;42.678;23.288;2024-01-25T00:40:40;3.20;99.90
21092;DHT22;10704;42.678;23.288;2024-01-25T00:43:06;3.20;99.90
21092;DHT22;10704;42.678;23.288;2024-01-25T00:45:32;3.30;99.90
21092;DHT22;10704;42.678;23.288;2024-01-25T00:47:58;3.30;99.90
21092;DHT22;10704;42.678;23.288;2024-01-25T00:50:24;3.30;99.90
21092;DHT22;10704;42.678;23.288;2024-01-25T00:52:52;3.30;99.90
21092;DHT22;10704;42.678;23.288;2024-01-25T00:55:18;3.30;99.90
21092;DHT22;10704;42.678;23.288;2024-01-25T00:57:44;3.40;99.90
21092;DHT22;10704;42.678;23.288;2024-01-25T01:00:10;3.40;99.90
21092;DHT22;10704;42.678;23.288;2024-01-25T01:02:40;3.30;99.90
21092;DHT22;10704;42.678;23.288;2024-01-25T01:05:07;3.30;99.90
21092;DHT22;10704;42.678;23.288;2024-01-25T01:07:33;3.20;99.90
21092;DHT22;10704;42.678;23.288;2024-01-25T01:09:59;3.20;99.90
21092;DHT22;10704;42.678;23.288;2024-01-25T01:12:25;3.20;99.90
21092;DHT22;10704;42.678;23.288;2024-01-25T01:14:51;3.20;99.90
21092;DHT22;10704;42.678;23.288;2024-01-25T01:17:17;3.40;99.90
21092;DHT22;10704;42.678;23.288;2024-01-25T01:19:44;3.40;99.90
21092;DHT22;10704;42.678;23.288;2024-01-25T01:22:10;3.50;99.90
21092;DHT22;10704;42.678;23.288;2024-01-25T01:24:36;3.40;99.90
21092;DHT22;10704;42.678;23.288;2024-01-25T01:27:02;3.30;99.90
21092;DHT22;10704;42.678;23.288;2024-01-25T01:29:28;3.40;99.90
21092;DHT22;10704;42.678;23.288;2024-01-25T01:31:54;3.40;99.90
21092;DHT22;10704;42.678;23.288;2024-01-25T01:34:20;3.50;99.90
21092;DHT22;10704;42.678;23.288;2024-01-25T01:36:46;3.60;99.90
21092;DHT22;10704;42.678;23.288;2024-01-25T01:39:12;3.90;99.90
21092;DHT22;10704;42.678;23.288;2024-01-25T01:41:38;3.90;99.90
21092;DHT22;10704;42.678;23.288;2024-01-25T01:44:04;4.10;99.90
21092;DHT22;10704;42.678;23.288;2024-01-25T01:46:37;4.30;99.90
21092;DHT22;10704;42.678;23.288;2024-01-25T01:49:07;4.50;99.90
21092;DHT22;10704;42.678;23.288;2024-01-25T01:51:34;4.90;99.90
21092;DHT22;10704;42.678;23.288;2024-01-25T01:54:01;5.20;99.90
21092;DHT22;10704;42.678;23.288;2024-01-25T01:56:29;5.60;99.90
21092;DHT22;10704;42.678;23.288;2024-01-25T01:59:05;6.00;99.90
21092;DHT22;10704;42.678;23.288;2024-01-25T02:01:33;6.20;99.90
21092;DHT22;10704;42.678;23.288;2024-01-25T02:03:59;6.40;99.90
21092;DHT22;10704;42.678;23.288;2024-01-25T02:06:25;6.50;99.90
21092;DHT22;10704;42.678;23.288;2024-01-25T02:08:52;6.60;99.90
21092;DHT22;10704;42.678;23.288;2024-01-25T02:11:25;6.60;99.90
21092;DHT22;10704;42.678;23.288;2024-01-25T02:13:51;6.60;99.90
21092;DHT22;10704;42.678;23.288;2024-01-25T02:16:17;6.60;99.90
21092;DHT22;10704;42.678;23.288;2024-01-25T02:18:46;6.40;99.90
21092;DHT22;10704;42.678;23.288;2024-01-25T02:21:13;6.10;99.90
21092;DHT22;10704;42.678;23.288;2024-01-25T02:23:39;5.90;99.90
21092;DHT22;10704;42.678;23.288;2024-01-25T02:26:05;5.70;99.90
21092;DHT22;10704;42.678;23.288;2024-01-25T02:28:31;5.50;99.90
21092;DHT22;10704;42.678;23.288;2024-01-25T02:30:58;5.50;99.90
21092;DHT22;10704;42.678;23.288;2024-01-25T02:33:24;5.60;99.90
21092;DHT22;10704;42.678;23.288;2024-01-25T02:43:43;6.00;99.90
21092;DHT22;10704;42.678;23.288;2024-01-25T02:46:09;5.60;99.90
21092;DHT22;10704;42.678;23.288;2024-01-25T02:48:35;5.40;99.90
21092;DHT22;10704;42.678;23.288;2024-01-25T02:51:01;5.30;99.90
21092;DHT22;10704;42.678;23.288;2024-01-25T02:53:27;5.40;99.90
21092;DHT22;10704;42.678;23.288;2024-01-25T02:55:53;5.40;99.90
21092;DHT22;10704;42.678;23.288;2024-01-25T02:58:19;5.40;99.90
21092;DHT22;10704;42.678;23.288;2024-01-25T03:00:45;5.50;99.90
21092;DHT22;10704;42.678;23.288;2024-01-25T03:03:11;5.70;99.90
21092;DHT22;10704;42.678;23.288;2024-01-25T03:05:37;6.00;99.90
21092;DHT22;10704;42.678;23.288;2024-01-25T03:08:03;6.20;99.90
21092;DHT22;10704;42.678;23.288;2024-01-25T03:10:29;6.40;99.90
21092;DHT22;10704;42.678;23.288;2024-01-25T03:12:55;6.70;99.90
21092;DHT22;10704;42.678;23.288;2024-01-25T03:15:21;7.20;99.90
21092;DHT22;10704;42.678;23.288;2024-01-25T03:17:47;7.60;99.90
21092;DHT22;10704;42.678;23.288;2024-01-25T03:20:13;7.70;99.90
21092;DHT22;10704;42.678;23.288;2024-01-25T03:22:39;7.60;99.90
21092;DHT22;10704;42.678;23.288;2024-01-25T03:25:05;7.70;99.90
21092;DHT22;10704;42.678;23.288;2024-01-25T03:27:31;7.70;99.90
21092;DHT22;10704;42.678;23.288;2024-01-25T03:29:57;7.60;99.90
21092;DHT22;10704;42.678;23.288;2024-01-25T03:32:23;7.60;99.90
21092;DHT22;10704;42.678;23.288;2024-01-25T03:34:49;7.60;99.90
21092;DHT22;10704;42.678;23.288;2024-01-25T03:37:15;7.50;99.90
21092;DHT22;10704;42.678;23.288;2024-01-25T03:39:41;7.50;99.90
21092;DHT22;10704;42.678;23.288;2024-01-25T03:42:07;7.50;99.90
21092;DHT22;10704;42.678;23.288;2024-01-25T03:44:33;7.40;99.90
21092;DHT22;10704;42.678;23.288;2024-01-25T03:46:59;7.40;99.90
21092;DHT22;10704;42.678;23.288;2024-01-25T03:49:25;7.30;99.90
21092;DHT22;10704;42.678;23.288;2024-01-25T03:51:51;7.20;99.90
21092;DHT22;10704;42.678;23.288;2024-01-25T03:54:17;7.20;99.90
21092;DHT22;10704;42.678;23.288;2024-01-25T03:56:43;7.30;99.90
21092;DHT22;10704;42.678;23.288;2024-01-25T03:59:09;7.40;99.90
21092;DHT22;10704;42.678;23.288;2024-01-25T04:01:44;7.50;99.90
21092;DHT22;10704;42.678;23.288;2024-01-25T04:04:10;7.40;99.90
21092;DHT22;10704;42.678;23.288;2024-01-25T04:06:44;7.50;99.90
21092;DHT22;10704;42.678;23.288;2024-01-25T04:09:11;7.50;99.90
21092;DHT22;10704;42.678;23.288;2024-01-25T04:11:38;7.40;99.90
21092;DHT22;10704;42.678;23.288;2024-01-25T04:14:04;7.40;99.90
21092;DHT22;10704;42.678;23.288;2024-01-25T04:16:31;7.50;99.90
21092;DHT22;10704;42.678;23.288;2024-01-25T04:18:57;7.50;99.90
21092;DHT22;10704;42.678;23.288;2024-01-25T04:21:23;7.60;99.90
21092;DHT22;10704;42.678;23.288;2024-01-25T04:23:49;7.60;99.90
21092;DHT22;10704;42.678;23.288;2024-01-25T04:26:16;7.70;99.90
21092;DHT22;10704;42.678;23.288;2024-01-25T04:32:29;7.60;99.90
21092;DHT22;10704;42.678;23.288;2024-01-25T04:34:55;7.60;99.90
21092;DHT22;10704;42.678;23.288;2024-01-25T04:37:21;7.60;99.90
21092;DHT22;10704;42.678;23.288;2024-01-25T04:39:49;7.60;99.90
21092;DHT22;10704;42.678;23.288;2024-01-25T04:42:15;7.50;99.90
21092;DHT22;10704;42.678;23.288;2024-01-25T04:48:29;7.20;99.90
21092;DHT22;10704;42.678;23.288;2024-01-25T04:50:57;6.70;99.90
21092;DHT22;10704;42.678;23.288;2024-01-25T04:53:24;6.40;99.90
21092;DHT22;10704;42.678;23.288;2024-01-25T04:55:50;6.20;99.90
21092;DHT22;10704;42.678;23.288;2024-01-25T04:58:16;6.00;99.90
21092;DHT22;10704;42.678;23.288;2024-01-25T05:00:42;5.80;99.90
21092;DHT22;10704;42.678;23.288;2024-01-25T05:03:08;5.70;99.90
21092;DHT22;10704;42.678;23.288;2024-01-25T05:05:33;5.70;99.90
21092;DHT22;10704;42.678;23.288;2024-01-25T05:07:59;5.70;99.90
21092;DHT22;10704;42.678;23.288;2024-01-25T05:10:26;5.60;99.90
21092;DHT22;10704;42.678;23.288;2024-01-25T05:12:51;5.60;99.90
21092;DHT22;10704;42.678;23.288;2024-01-25T05:15:17;5.70;99.90
21092;DHT22;10704;42.678;23.288;2024-01-25T05:17:43;5.80;99.90
21092;DHT22;10704;42.678;23.288;2024-01-25T05:20:09;5.80;99.90
21092;DHT22;10704;42.678;23.288;2024-01-25T05:22:35;6.10;99.90
21092;DHT22;10704;42.678;23.288;2024-01-25T05:25:06;6.40;99.90
21092;DHT22;10704;42.678;23.288;2024-01-25T05:27:34;6.70;99.90
21092;DHT22;10704;42.678;23.288;2024-01-25T05:30:00;6.80;99.90
21092;DHT22;10704;42.678;23.288;2024-01-25T05:32:25;6.80;99.90
21092;DHT22;10704;42.678;23.288;2024-01-25T05:34:52;6.90;99.90
21092;DHT22;10704;42.678;23.288;2024-01-25T05:37:18;7.20;99.90
21092;DHT22;10704;42.678;23.288;2024-01-25T05:39:44;7.10;99.90
21092;DHT22;10704;42.678;23.288;2024-01-25T05:42:10;7.10;99.90
21092;DHT22;10704;42.678;23.288;2024-01-25T05:44:36;7.30;99.90
21092;DHT22;10704;42.678;23.288;2024-01-25T05:47:02;7.20;99.90
21092;DHT22;10704;42.678;23.288;2024-01-25T05:49:28;7.30;99.90
21092;DHT22;10704;42.678;23.288;2024-01-25T05:51:54;7.20;99.90
21092;DHT22;10704;42.678;23.288;2024-01-25T05:54:20;7.10;99.90
21092;DHT22;10704;42.678;23.288;2024-01-25T05:56:46;7.20;99.90
21092;DHT22;10704;42.678;23.288;2024-01-25T05:59:12;7.20;99.90
21092;DHT22;10704;42.678;23.288;2024-01-25T06:01:38;7.20;99.90
21092;DHT22;10704;42.678;23.288;2024-01-25T06:04:04;7.10;99.90
21092;DHT22;10704;42.678;23.288;2024-01-25T06:06:30;7.00;99.90
21092;DHT22;10704;42.678;23.288;2024-01-25T06:08:56;6.90;99.90
21092;DHT22;10704;42.678;23.288;2024-01-25T06:11:22;6.90;99.90
21092;DHT22;10704;42.678;23.288;2024-01-25T06:13:48;6.70;99.90
21092;DHT22;10704;42.678;23.288;2024-01-25T06:16:14;6.70;99.90
21092;DHT22;10704;42.678;23.288;2024-01-25T06:18:39;6.70;99.90
21092;DHT22;10704;42.678;23.288;2024-01-25T06:21:05;6.70;99.90
21092;DHT22;10704;42.678;23.288;2024-01-25T06:23:31;6.70;99.90
21092;DHT22;10704;42.678;23.288;2024-01-25T06:25:57;6.80;99.90
21092;DHT22;10704;42.678;23.288;2024-01-25T06:28:23;6.90;99.90
21092;DHT22;10704;42.678;23.288;2024-01-25T06:30:50;6.90;99.90
21092;DHT22;10704;42.678;23.288;2024-01-25T06:33:16;6.90;99.90
21092;DHT22;10704;42.678;23.288;2024-01-25T06:35:42;6.90;99.90
21092;DHT22;10704;42.678;23.288;2024-01-25T06:38:08;6.80;99.90
21092;DHT22;10704;42.678;23.288;2024-01-25T06:40:35;6.80;99.90
21092;DHT22;10704;42.678;23.288;2024-01-25T06:43:01;6.90;99.90
21092;DHT22;10704;42.678;23.288;2024-01-25T06:45:27;6.90;99.90
21092;DHT22;10704;42.678;23.288;2024-01-25T06:47:53;7.00;99.90
21092;DHT22;10704;42.678;23.288;2024-01-25T06:50:19;6.80;99.90
21092;DHT22;10704;42.678;23.288;2024-01-25T06:52:45;6.60;99.90
21092;DHT22;10704;42.678;23.288;2024-01-25T06:55:11;6.40;99.90
21092;DHT22;10704;42.678;23.288;2024-01-25T06:57:38;6.60;99.90
21092;DHT22;10704;42.678;23.288;2024-01-25T07:00:05;6.50;99.90
21092;DHT22;10704;42.678;23.288;2024-01-25T07:02:32;6.50;99.90
21092;DHT22;10704;42.678;23.288;2024-01-25T07:04:58;6.60;99.90
21092;DHT22;10704;42.678;23.288;2024-01-25T07:07:24;6.60;99.90
21092;DHT22;10704;42.678;23.288;2024-01-25T07:09:50;6.60;99.90
21092;DHT22;10704;42.678;23.288;2024-01-25T07:12:16;6.70;99.90
21092;DHT22;10704;42.678;23.288;2024-01-25T07:14:42;6.90;99.90
21092;DHT22;10704;42.678;23.288;2024-01-25T07:17:08;6.90;99.90
21092;DHT22;10704;42.678;23.288;2024-01-25T07:19:34;6.90;99.90
21092;DHT22;10704;42.678;23.288;2024-01-25T07:22:00;6.90;99.90
21092;DHT22;10704;42.678;23.288;2024-01-25T07:24:26;6.80;99.90
21092;DHT22;10704;42.678;23.288;2024-01-25T07:26:52;6.80;99.90
21092;DHT22;10704;42.678;23.288;2024-01-25T07:29:18;6.80;99.90
21092;DHT22;10704;42.678;23.288;2024-01-25T07:31:44;7.00;99.90
21092;DHT22;10704;42.678;23.288;2024-01-25T07:34:10;7.00;99.90
21092;DHT22;10704;42.678;23.288;2024-01-25T07:36:36;6.90;99.90
21092;DHT22;10704;42.678;23.288;2024-01-25T07:39:02;6.80;99.90
21092;DHT22;10704;42.678;23.288;2024-01-25T07:41:28;6.80;99.90
21092;DHT22;10704;42.678;23.288;2024-01-25T07:43:54;6.80;99.90
21092;DHT22;10704;42.678;23.288;2024-01-25T07:46:21;6.80;99.90
21092;DHT22;10704;42.678;23.288;2024-01-25T07:48:49;6.80;99.90
21092;DHT22;10704;42.678;23.288;2024-01-25T07:51:15;6.80;99.90
21092;DHT22;10704;42.678;23.288;2024-01-25T07:53:42;6.90;99.90
21092;DHT22;10704;42.678;23.288;2024-01-25T07:56:08;6.90;99.90
21092;DHT22;10704;42.678;23.288;2024-01-25T07:58:38;6.90;99.90
21092;DHT22;10704;42.678;23.288;2024-01-25T08:01:05;7.00;99.90
21092;DHT22;10704;42.678;23.288;2024-01-25T08:03:34;7.10;99.90
21092;DHT22;10704;42.678;23.288;2024-01-25T08:06:02;7.10;99.90
21092;DHT22;10704;42.678;23.288;2024-01-25T08:08:28;7.10;99.90
21092;DHT22;10704;42.678;23.288;2024-01-25T08:10:54;7.10;99.90
21092;DHT22;10704;42.678;23.288;2024-01-25T08:13:20;7.10;99.90
21092;DHT22;10704;42.678;23.288;2024-01-25T08:15:46;7.10;99.90
21092;DHT22;10704;42.678;23.288;2024-01-25T08:18:12;7.00;99.90
21092;DHT22;10704;42.678;23.288;2024-01-25T08:20:38;7.00;99.90
21092;DHT22;10704;42.678;23.288;2024-01-25T08:23:04;7.10;99.90
21092;DHT22;10704;42.678;23.288;2024-01-25T08:25:30;7.10;99.90
21092;DHT22;10704;42.678;23.288;2024-01-25T08:27:56;7.10;99.90
21092;DHT22;10704;42.678;23.288;2024-01-25T08:30:22;7.10;99.90
21092;DHT22;10704;42.678;23.288;2024-01-25T08:32:48;7.10;99.90
21092;DHT22;10704;42.678;23.288;2024-01-25T08:35:14;7.20;99.90
21092;DHT22;10704;42.678;23.288;2024-01-25T08:37:40;7.30;99.90
21092;DHT22;10704;42.678;23.288;2024-01-25T08:40:06;7.30;99.90
21092;DHT22;10704;42.678;23.288;2024-01-25T08:42:35;7.30;99.90
21092;DHT22;10704;42.678;23.288;2024-01-25T08:45:01;7.30;99.90
21092;DHT22;10704;42.678;23.288;2024-01-25T08:47:27;7.30;99.90
21092;DHT22;10704;42.678;23.288;2024-01-25T08:49:53;7.30;99.90
21092;DHT22;10704;42.678;23.288;2024-01-25T08:52:19;7.20;99.90
21092;DHT22;10704;42.678;23.288;2024-01-25T08:54:45;7.30;99.90
21092;DHT22;10704;42.678;23.288;2024-01-25T08:57:11;7.40;99.90
21092;DHT22;10704;42.678;23.288;2024-01-25T08:59:37;7.40;99.90
21092;DHT22;10704;42.678;23.288;2024-01-25T09:02:06;7.50;99.90
21092;DHT22;10704;42.678;23.288;2024-01-25T09:04:32;7.60;99.90
21092;DHT22;10704;42.678;23.288;2024-01-25T09:06:59;7.70;99.90
21092;DHT22;10704;42.678;23.288;2024-01-25T09:09:25;7.80;99.90
21092;DHT22;10704;42.678;23.288;2024-01-25T09:11:51;7.70;99.90
21092;DHT22;10704;42.678;23.288;2024-01-25T09:14:17;7.60;99.90
21092;DHT22;10704;42.678;23.288;2024-01-25T09:16:43;7.60;99.90
21092;DHT22;10704;42.678;23.288;2024-01-25T09:19:09;7.70;99.90
21092;DHT22;10704;42.678;23.288;2024-01-25T09:21:38;7.70;99.90
21092;DHT22;10704;42.678;23.288;2024-01-25T09:24:05;7.60;99.90
21092;DHT22;10704;42.678;23.288;2024-01-25T09:26:31;7.60;99.90
21092;DHT22;10704;42.678;23.288;2024-01-25T09:28:57;7.80;99.90
21092;DHT22;10704;42.678;23.288;2024-01-25T09:31:23;7.80;99.90
21092;DHT22;10704;42.678;23.288;2024-01-25T09:33:49;7.70;99.90
21092;DHT22;10704;42.678;23.288;2024-01-25T09:36:18;7.80;99.90
21092;DHT22;10704;42.678;23.288;2024-01-25T09:38:44;7.90;99.90
21092;DHT22;10704;42.678;23.288;2024-01-25T09:41:12;8.20;99.90
21092;DHT22;10704;42.678;23.288;2024-01-25T09:43:37;8.40;99.90
21092;DHT22;10704;42.678;23.288;2024-01-25T09:46:05;8.30;99.90
21092;DHT22;10704;42.678;23.288;2024-01-25T09:48:32;8.10;99.90
21092;DHT22;10704;42.678;23.288;2024-01-25T09:50:59;7.90;99.90
21092;DHT22;10704;42.678;23.288;2024-01-25T09:53:25;7.90;99.90
21092;DHT22;10704;42.678;23.288;2024-01-25T09:56:05;7.90;99.90
21092;DHT22;10704;42.678;23.288;2024-01-25T09:58:43;8.00;99.90
21092;DHT22;10704;42.678;23.288;2024-01-25T10:01:15;7.90;99.90
21092;DHT22;10704;42.678;23.288;2024-01-25T10:03:47;7.90;99.90
21092;DHT22;10704;42.678;23.288;2024-01-25T10:06:14;7.90;99.90
21092;DHT22;10704;42.678;23.288;2024-01-25T10:08:41;7.90;99.90
21092;DHT22;10704;42.678;23.288;2024-01-25T10:11:07;7.90;99.90
21092;DHT22;10704;42.678;23.288;2024-01-25T10:13:44;7.90;99.90
21092;DHT22;10704;42.678;23.288;2024-01-25T10:16:13;7.90;99.90
21092;DHT22;10704;42.678;23.288;2024-01-25T10:18:41;8.00;99.90
21092;DHT22;10704;42.678;23.288;2024-01-25T10:21:10;7.90;99.90
21092;DHT22;10704;42.678;23.288;2024-01-25T10:23:37;8.00;99.90
21092;DHT22;10704;42.678;23.288;2024-01-25T10:26:03;8.10;99.90
21092;DHT22;10704;42.678;23.288;2024-01-25T10:28:29;8.10;99.90
21092;DHT22;10704;42.678;23.288;2024-01-25T10:31:01;8.10;99.90
21092;DHT22;10704;42.678;23.288;2024-01-25T10:33:30;8.20;99.90
21092;DHT22;10704;42.678;23.288;2024-01-25T10:36:02;8.40;99.90
21092;DHT22;10704;42.678;23.288;2024-01-25T10:38:33;8.50;99.90
21092;DHT22;10704;42.678;23.288;2024-01-25T10:41:03;8.70;99.90
21092;DHT22;10704;42.678;23.288;2024-01-25T10:43:29;8.60;99.90
21092;DHT22;10704;42.678;23.288;2024-01-25T10:45:59;8.50;99.90
21092;DHT22;10704;42.678;23.288;2024-01-25T10:48:25;8.50;99.90
21092;DHT22;10704;42.678;23.288;2024-01-25T10:50:53;8.70;99.90
21092;DHT22;10704;42.678;23.288;2024-01-25T10:53:20;8.90;99.90
21092;DHT22;10704;42.678;23.288;2024-01-25T10:55:47;9.00;99.90
21092;DHT22;10704;42.678;23.288;2024-01-25T10:58:16;9.40;99.90
21092;DHT22;10704;42.678;23.288;2024-01-25T11:00:54;9.40;99.90
21092;DHT22;10704;42.678;23.288;2024-01-25T11:03:28;9.10;99.90
21092;DHT22;10704;42.678;23.288;2024-01-25T11:06:06;8.70;99.90
21092;DHT22;10704;42.678;23.288;2024-01-25T11:08:36;8.50;99.90
21092;DHT22;10704;42.678;23.288;2024-01-25T11:11:10;8.60;99.90
21092;DHT22;10704;42.678;23.288;2024-01-25T11:13:44;8.50;99.90
21092;DHT22;10704;42.678;23.288;2024-01-25T11:16:31;8.60;99.90
21092;DHT22;10704;42.678;23.288;2024-01-25T11:18:59;8.50;99.90
21092;DHT22;10704;42.678;23.288;2024-01-25T11:21:44;8.60;99.90
21092;DHT22;10704;42.678;23.288;2024-01-25T11:24:24;8.60;99.90
21092;DHT22;10704;42.678;23.288;2024-01-25T11:26:54;8.60;99.90
21092;DHT22;10704;42.678;23.288;2024-01-25T11:29:21;8.60;99.90
21092;DHT22;10704;42.678;23.288;2024-01-25T11:31:49;8.50;99.90
21092;DHT22;10704;42.678;23.288;2024-01-25T11:34:16;8.30;99.90
21092;DHT22;10704;42.678;23.288;2024-01-25T11:36:44;8.30;99.90
21092;DHT22;10704;42.678;23.288;2024-01-25T11:39:11;8.20;99.90
21092;DHT22;10704;42.678;23.288;2024-01-25T11:41:37;8.10;99.90
21092;DHT22;10704;42.678;23.288;2024-01-25T11:44:03;8.00;99.90
21092;DHT22;10704;42.678;23.288;2024-01-25T11:46:30;8.10;99.90
21092;DHT22;10704;42.678;23.288;2024-01-25T11:48:59;8.00;99.90
21092;DHT22;10704;42.678;23.288;2024-01-25T11:51:26;8.00;99.90
21092;DHT22;10704;42.678;23.288;2024-01-25T11:53:52;8.20;99.90
21092;DHT22;10704;42.678;23.288;2024-01-25T11:56:21;8.10;99.90
21092;DHT22;10704;42.678;23.288;2024-01-25T11:58:49;8.10;99.90
21092;DHT22;10704;42.678;23.288;2024-01-25T12:01:15;8.00;99.90
21092;DHT22;10704;42.678;23.288;2024-01-25T12:03:42;8.00;99.90
21092;DHT22;10704;42.678;23.288;2024-01-25T12:06:08;7.90;99.90
21092;DHT22;10704;42.678;23.288;2024-01-25T12:08:35;8.00;99.90
21092;DHT22;10704;42.678;23.288;2024-01-25T12:11:09;8.00;99.90
21092;DHT22;10704;42.678;23.288;2024-01-25T12:13:44;8.00;99.90
21092;DHT22;10704;42.678;23.288;2024-01-25T12:16:11;8.00;99.90
21092;DHT22;10704;42.678;23.288;2024-01-25T12:18:39;7.90;99.90
21092;DHT22;10704;42.678;23.288;2024-01-25T12:21:06;7.90;99.90
21092;DHT22;10704;42.678;23.288;2024-01-25T12:23:35;7.80;99.90
21092;DHT22;10704;42.678;23.288;2024-01-25T12:26:11;7.90;99.90
21092;DHT22;10704;42.678;23.288;2024-01-25T12:28:37;8.20;99.90
21092;DHT22;10704;42.678;23.288;2024-01-25T12:31:04;8.80;99.80
21092;DHT22;10704;42.678;23.288;2024-01-25T12:33:31;9.40;97.80
21092;DHT22;10704;42.678;23.288;2024-01-25T12:35:58;9.70;96.50
21092;DHT22;10704;42.678;23.288;2024-01-25T12:38:25;9.90;96.00
21092;DHT22;10704;42.678;23.288;2024-01-25T12:40:55;9.90;95.30
21092;DHT22;10704;42.678;23.288;2024-01-25T12:43:21;9.90;94.50
21092;DHT22;10704;42.678;23.288;2024-01-25T12:45:47;10.00;94.30
21092;DHT22;10704;42.678;23.288;2024-01-25T12:48:13;9.80;94.30
21092;DHT22;10704;42.678;23.288;2024-01-25T12:50:39;10.00;94.30
21092;DHT22;10704;42.678;23.288;2024-01-25T12:53:05;9.60;92.70
21092;DHT22;10704;42.678;23.288;2024-01-25T12:55:32;9.30;94.10
21092;DHT22;10704;42.678;23.288;2024-01-25T12:57:59;9.50;94.00
21092;DHT22;10704;42.678;23.288;2024-01-25T13:00:25;9.50;94.10
21092;DHT22;10704;42.678;23.288;2024-01-25T13:02:51;9.50;94.00
21092;DHT22;10704;42.678;23.288;2024-01-25T13:05:17;9.50;93.50
21092;DHT22;10704;42.678;23.288;2024-01-25T13:07:43;9.50;93.30
21092;DHT22;10704;42.678;23.288;2024-01-25T13:10:09;9.70;93.10
21092;DHT22;10704;42.678;23.288;2024-01-25T13:12:38;10.40;92.50
21092;DHT22;10704;42.678;23.288;2024-01-25T13:15:05;10.50;91.80
21092;DHT22;10704;42.678;23.288;2024-01-25T13:17:31;10.30;91.50
21092;DHT22;10704;42.678;23.288;2024-01-25T13:20:00;10.30;91.50
21092;DHT22;10704;42.678;23.288;2024-01-25T13:22:26;10.30;91.00
21092;DHT22;10704;42.678;23.288;2024-01-25T13:24:53;10.10;90.90
21092;DHT22;10704;42.678;23.288;2024-01-25T13:27:18;10.30;91.20
21092;DHT22;10704;42.678;23.288;2024-01-25T13:29:44;9.60;91.20
21092;DHT22;10704;42.678;23.288;2024-01-25T13:32:10;9.20;92.40
21092;DHT22;10704;42.678;23.288;2024-01-25T13:34:36;8.90;93.60
21092;DHT22;10704;42.678;23.288;2024-01-25T13:37:02;8.70;94.10
21092;DHT22;10704;42.678;23.288;2024-01-25T13:39:28;8.50;94.70
21092;DHT22;10704;42.678;23.288;2024-01-25T13:41:54;8.50;95.10
21092;DHT22;10704;42.678;23.288;2024-01-25T13:44:22;8.30;95.30
21092;DHT22;10704;42.678;23.288;2024-01-25T13:46:48;8.10;95.50
21092;DHT22;10704;42.678;23.288;2024-01-25T13:49:14;8.10;96.40
21092;DHT22;10704;42.678;23.288;2024-01-25T13:51:40;8.00;96.50
21092;DHT22;10704;42.678;23.288;2024-01-25T13:54:06;8.00;96.60
21092;DHT22;10704;42.678;23.288;2024-01-25T13:56:32;8.00;96.60
21092;DHT22;10704;42.678;23.288;2024-01-25T13:58:58;7.90;96.80
21092;DHT22;10704;42.678;23.288;2024-01-25T14:01:23;7.80;97.40
21092;DHT22;10704;42.678;23.288;2024-01-25T14:03:49;7.80;97.60
21092;DHT22;10704;42.678;23.288;2024-01-25T14:06:16;7.80;97.70
21092;DHT22;10704;42.678;23.288;2024-01-25T14:08:42;7.70;98.50
21092;DHT22;10704;42.678;23.288;2024-01-25T14:11:10;7.70;98.80
21092;DHT22;10704;42.678;23.288;2024-01-25T14:13:36;7.70;99.00
21092;DHT22;10704;42.678;23.288;2024-01-25T14:16:02;7.60;99.20
21092;DHT22;10704;42.678;23.288;2024-01-25T14:18:28;7.60;99.30
21092;DHT22;10704;42.678;23.288;2024-01-25T14:20:55;7.60;99.50
21092;DHT22;10704;42.678;23.288;2024-01-25T14:23:21;7.60;99.60
21092;DHT22;10704;42.678;23.288;2024-01-25T14:25:47;7.50;99.60
21092;DHT22;10704;42.678;23.288;2024-01-25T14:28:12;7.60;99.50
21092;DHT22;10704;42.678;23.288;2024-01-25T14:30:38;7.50;99.90
21092;DHT22;10704;42.678;23.288;2024-01-25T14:33:04;7.40;99.90
21092;DHT22;10704;42.678;23.288;2024-01-25T14:35:30;7.40;99.90
21092;DHT22;10704;42.678;23.288;2024-01-25T14:37:56;7.50;99.90
21092;DHT22;10704;42.678;23.288;2024-01-25T14:40:24;7.50;99.90
21092;DHT22;10704;42.678;23.288;2024-01-25T14:42:50;7.40;99.90
21092;DHT22;10704;42.678;23.288;2024-01-25T14:45:16;7.40;99.90
21092;DHT22;10704;42.678;23.288;2024-01-25T14:47:42;7.40;99.90
21092;DHT22;10704;42.678;23.288;2024-01-25T14:50:07;7.40;99.90
21092;DHT22;10704;42.678;23.288;2024-01-25T14:52:33;7.40;99.90
21092;DHT22;10704;42.678;23.288;2024-01-25T14:55:03;7.30;99.90
21092;DHT22;10704;42.678;23.288;2024-01-25T14:57:30;7.30;99.90
21092;DHT22;10704;42.678;23.288;2024-01-25T14:59:56;7.40;99.90
21092;DHT22;10704;42.678;23.288;2024-01-25T15:02:22;7.50;99.90
21092;DHT22;10704;42.678;23.288;2024-01-25T15:04:48;7.40;99.90
21092;DHT22;10704;42.678;23.288;2024-01-25T15:07:14;7.40;99.90
21092;DHT22;10704;42.678;23.288;2024-01-25T15:09:41;7.30;99.90
21092;DHT22;10704;42.678;23.288;2024-01-25T15:12:08;7.30;99.90
21092;DHT22;10704;42.678;23.288;2024-01-25T15:14:34;7.40;99.90
21092;DHT22;10704;42.678;23.288;2024-01-25T15:17:00;7.40;99.90
21092;DHT22;10704;42.678;23.288;2024-01-25T15:19:26;7.40;99.90
21092;DHT22;10704;42.678;23.288;2024-01-25T15:21:51;7.30;99.90
21092;DHT22;10704;42.678;23.288;2024-01-25T15:24:17;7.30;99.90
21092;DHT22;10704;42.678;23.288;2024-01-25T15:26:43;7.30;99.90
21092;DHT22;10704;42.678;23.288;2024-01-25T15:29:09;7.30;99.90
21092;DHT22;10704;42.678;23.288;2024-01-25T15:31:35;7.30;99.90
21092;DHT22;10704;42.678;23.288;2024-01-25T15:34:01;7.30;99.90
21092;DHT22;10704;42.678;23.288;2024-01-25T15:36:28;7.40;99.90
21092;DHT22;10704;42.678;23.288;2024-01-25T15:38:54;7.30;99.90
21092;DHT22;10704;42.678;23.288;2024-01-25T15:41:20;7.30;99.90
21092;DHT22;10704;42.678;23.288;2024-01-25T15:43:48;7.30;99.90